createdAt,value
2024-04-21T00:00:39.929Z,6.86
2024-04-21T00:01:40.048Z,6.79
2024-04-21T00:02:39.910Z,6.73
2024-04-21T00:03:40.025Z,6.69
2024-04-21T00:04:39.991Z,6.64
2024-04-21T00:05:39.856Z,6.63
2024-04-21T00:06:39.868Z,6.55
2024-04-21T00:07:39.910Z,6.54
2024-04-21T00:08:39.967Z,6.41
2024-04-21T00:09:40.023Z,6.09
2024-04-21T00:10:40.071Z,6.30
2024-04-21T00:11:40.052Z,6.29
2024-04-21T00:12:40.043Z,6.20
2024-04-21T00:13:40.026Z,6.15
2024-04-21T00:14:40.016Z,6.20
2024-04-21T00:15:40.034Z,6.14
2024-04-21T00:16:40.006Z,6.04
2024-04-21T00:17:39.977Z,6.01
2024-04-21T00:18:39.973Z,5.90
2024-04-21T00:19:40.028Z,5.92
2024-04-21T00:20:40.091Z,5.84
2024-04-21T00:21:40.132Z,5.86
2024-04-21T00:22:40.188Z,5.72
2024-04-21T00:23:40.245Z,5.79
2024-04-21T00:24:40.294Z,5.63
2024-04-21T00:25:40.372Z,5.62
2024-04-21T00:26:40.401Z,5.53
2024-04-21T00:27:40.454Z,5.54
2024-04-21T00:28:40.519Z,5.45
2024-04-21T00:29:40.574Z,5.41
2024-04-21T00:30:40.623Z,5.35
2024-04-21T00:31:40.685Z,5.30
2024-04-21T00:32:40.829Z,5.31
2024-04-21T00:33:40.814Z,5.22
2024-04-21T00:34:40.901Z,5.19
2024-04-21T00:35:40.908Z,5.11
2024-04-21T00:36:40.962Z,5.23
2024-04-21T00:37:41.008Z,5.14
2024-04-21T00:38:41.077Z,5.01
2024-04-21T00:39:41.091Z,5.02
2024-04-21T00:40:41.128Z,5.08
2024-04-21T00:41:41.197Z,4.95
2024-04-21T00:42:41.229Z,4.88
2024-04-21T00:43:41.310Z,4.85
2024-04-21T00:44:41.335Z,4.97
2024-04-21T00:45:41.408Z,4.76
2024-04-21T00:46:41.532Z,4.70
2024-04-21T00:47:41.542Z,4.66
2024-04-21T00:48:41.607Z,4.64
2024-04-21T00:49:41.624Z,4.61
2024-04-21T00:50:41.703Z,4.55
2024-04-21T00:51:41.769Z,4.57
2024-04-21T00:52:41.799Z,4.54
2024-04-21T00:53:41.868Z,4.50
2024-04-21T00:54:41.926Z,4.38
2024-04-21T00:55:41.950Z,4.52
2024-04-21T00:56:42.022Z,4.35
2024-04-21T00:57:42.100Z,4.35
2024-04-21T00:58:42.132Z,4.32
2024-04-21T00:59:42.185Z,4.32
2024-04-21T01:00:42.323Z,4.28
2024-04-21T01:01:42.367Z,4.20
2024-04-21T01:02:42.413Z,4.19
2024-04-21T01:03:42.475Z,4.13
2024-04-21T01:04:42.529Z,4.13
2024-04-21T01:05:42.446Z,4.13
2024-04-21T01:06:42.454Z,4.14
2024-04-21T01:07:42.413Z,4.14
2024-04-21T01:08:42.413Z,4.06
2024-04-21T01:09:42.402Z,4.02
2024-04-21T01:10:42.411Z,4.02
2024-04-21T01:11:42.479Z,4.06
2024-04-21T01:12:42.562Z,3.99
2024-04-21T01:13:42.556Z,4.03
2024-04-21T01:14:42.542Z,3.90
2024-04-21T01:15:42.644Z,3.94
2024-04-21T01:16:42.517Z,3.90
2024-04-21T01:17:42.643Z,3.88
2024-04-21T01:18:42.527Z,3.86
2024-04-21T01:19:42.488Z,3.81
2024-04-21T01:20:42.484Z,3.86
2024-04-21T01:21:42.594Z,3.74
2024-04-21T01:22:42.566Z,3.74
2024-04-21T01:23:42.632Z,3.72
2024-04-21T01:24:42.631Z,3.72
2024-04-21T01:25:42.637Z,3.73
2024-04-21T01:26:42.613Z,3.70
2024-04-21T01:27:42.652Z,3.65
2024-04-21T01:28:42.608Z,3.64
2024-04-21T01:29:42.594Z,3.59
2024-04-21T01:30:42.628Z,3.56
2024-04-21T01:31:42.602Z,3.58
2024-04-21T01:32:42.687Z,3.54
2024-04-21T01:33:42.814Z,3.51
2024-04-21T01:34:42.798Z,3.48
2024-04-21T01:35:42.855Z,3.43
2024-04-21T01:36:42.951Z,3.45
2024-04-21T01:37:42.967Z,3.52
2024-04-21T01:38:43.156Z,3.40
2024-04-21T01:39:43.251Z,3.47
2024-04-21T01:40:43.175Z,3.40
2024-04-21T01:41:43.237Z,3.37
2024-04-21T01:42:43.362Z,3.38
2024-04-21T01:43:43.360Z,3.28
2024-04-21T01:44:43.435Z,3.30
2024-04-21T01:45:43.497Z,3.25
2024-04-21T01:46:43.577Z,3.23
2024-04-21T01:47:43.614Z,3.22
2024-04-21T01:48:43.707Z,3.23
2024-04-21T01:49:43.762Z,3.20
2024-04-21T01:50:43.807Z,3.11
2024-04-21T01:51:43.880Z,3.19
2024-04-21T01:52:43.913Z,3.09
2024-04-21T01:53:43.973Z,3.10
2024-04-21T01:54:44.048Z,3.10
2024-04-21T01:55:44.078Z,3.05
2024-04-21T01:56:44.119Z,3.02
2024-04-21T01:57:44.218Z,3.00
2024-04-21T01:58:44.246Z,3.00
2024-04-21T01:59:44.302Z,2.99
2024-04-21T02:00:44.465Z,2.93
2024-04-21T02:01:44.433Z,2.98
2024-04-21T02:02:44.576Z,2.92
2024-04-21T02:03:44.608Z,2.94
2024-04-21T02:04:44.633Z,2.89
2024-04-21T02:05:44.675Z,2.89
2024-04-21T02:06:44.774Z,2.90
2024-04-21T02:07:44.792Z,2.88
2024-04-21T02:08:44.850Z,2.80
2024-04-21T02:09:44.949Z,2.82
2024-04-21T02:10:44.981Z,2.78
2024-04-21T02:11:45.011Z,2.76
2024-04-21T02:12:45.115Z,2.78
2024-04-21T02:13:45.108Z,2.74
2024-04-21T02:14:45.172Z,2.67
2024-04-21T02:15:45.244Z,2.72
2024-04-21T02:16:45.246Z,2.71
2024-04-21T02:17:45.249Z,2.72
2024-04-21T02:18:45.228Z,2.72
2024-04-21T02:19:45.174Z,2.71
2024-04-21T02:20:45.150Z,2.68
2024-04-21T02:21:45.159Z,2.68
2024-04-21T02:22:45.125Z,2.65
2024-04-21T02:23:45.109Z,2.63
2024-04-21T02:24:45.189Z,2.63
2024-04-21T02:25:45.088Z,2.63
2024-04-21T02:26:45.131Z,2.54
2024-04-21T02:27:45.209Z,2.55
2024-04-21T02:28:45.108Z,2.55
2024-04-21T02:29:45.088Z,2.54
2024-04-21T02:30:45.108Z,2.54
2024-04-21T02:31:45.065Z,2.55
2024-04-21T02:32:45.126Z,2.52
2024-04-21T02:33:45.063Z,2.52
2024-04-21T02:34:45.021Z,2.50
2024-04-21T02:35:45.008Z,2.49
2024-04-21T02:36:45.016Z,2.49
2024-04-21T02:37:44.966Z,2.47
2024-04-21T02:38:44.963Z,2.47
2024-04-21T02:39:44.936Z,2.45
2024-04-21T02:40:44.917Z,2.45
2024-04-21T02:41:44.932Z,2.38
2024-04-21T02:42:44.901Z,2.37
2024-04-21T02:43:44.888Z,2.37
2024-04-21T02:44:44.861Z,2.38
2024-04-21T02:45:44.886Z,2.39
2024-04-21T02:46:44.915Z,2.37
2024-04-21T02:47:44.858Z,2.39
2024-04-21T02:48:44.858Z,2.35
2024-04-21T02:49:44.797Z,2.31
2024-04-21T02:50:44.788Z,2.31
2024-04-21T02:51:44.805Z,2.29
2024-04-21T02:52:44.762Z,2.28
2024-04-21T02:53:44.778Z,2.29
2024-04-21T02:54:44.756Z,2.26
2024-04-21T02:55:44.711Z,2.26
2024-04-21T02:56:44.706Z,2.29
2024-04-21T02:57:44.757Z,2.22
2024-04-21T02:58:44.751Z,2.23
2024-04-21T02:59:44.775Z,2.19
2024-04-21T03:00:44.857Z,2.20
2024-04-21T03:01:44.879Z,2.18
2024-04-21T03:02:44.831Z,2.18
2024-04-21T03:03:44.904Z,2.17
2024-04-21T03:04:44.982Z,2.16
2024-04-21T03:05:44.899Z,2.17
2024-04-21T03:06:44.921Z,2.13
2024-04-21T03:07:44.979Z,2.14
2024-04-21T03:08:45.017Z,2.14
2024-04-21T03:09:45.119Z,2.10
2024-04-21T03:10:45.093Z,2.10
2024-04-21T03:11:45.127Z,2.10
2024-04-21T03:12:45.212Z,2.11
2024-04-21T03:13:45.209Z,2.06
2024-04-21T03:14:45.228Z,2.08
2024-04-21T03:15:45.302Z,2.06
2024-04-21T03:16:45.332Z,2.05
2024-04-21T03:17:45.371Z,2.05
2024-04-21T03:18:45.498Z,2.04
2024-04-21T03:19:45.440Z,2.01
2024-04-21T03:20:45.472Z,2.03
2024-04-21T03:21:45.545Z,2.00
2024-04-21T03:22:45.528Z,2.01
2024-04-21T03:23:45.562Z,2.00
2024-04-21T03:24:45.689Z,2.00
2024-04-21T03:25:45.625Z,1.99
2024-04-21T03:26:45.646Z,1.93
2024-04-21T03:27:45.722Z,1.71
2024-04-21T03:28:45.734Z,1.54
2024-04-21T03:29:45.756Z,1.41
2024-04-21T03:30:45.834Z,1.22
2024-04-21T03:31:45.791Z,1.08
2024-04-21T03:32:45.834Z,0.93
2024-04-21T03:33:45.814Z,0.80
2024-04-21T03:34:45.772Z,0.71
2024-04-21T03:35:45.774Z,0.63
2024-04-21T03:36:45.778Z,0.56
2024-04-21T03:37:45.803Z,0.51
2024-04-21T03:38:45.799Z,0.50
2024-04-21T03:39:45.871Z,0.50
2024-04-21T03:40:45.821Z,0.50
2024-04-21T03:41:45.845Z,0.50
2024-04-21T03:42:45.893Z,0.50
2024-04-21T03:43:45.887Z,0.50
2024-04-21T03:44:45.968Z,0.50
2024-04-21T03:45:46.019Z,0.49
2024-04-21T03:46:45.966Z,0.48
2024-04-21T03:47:46.048Z,0.49
2024-04-21T03:48:46.031Z,0.49
2024-04-21T03:49:46.008Z,0.49
2024-04-21T03:50:46.019Z,0.50
2024-04-21T03:51:46.058Z,0.50
2024-04-21T03:52:46.038Z,0.49
2024-04-21T03:53:46.038Z,0.46
2024-04-21T03:54:46.034Z,0.43
2024-04-21T03:55:46.012Z,0.40
2024-04-21T03:56:45.979Z,0.37
2024-04-21T03:57:46.043Z,0.34
2024-04-21T03:58:45.963Z,0.36
2024-04-21T03:59:45.951Z,0.37
2024-04-21T04:00:46.080Z,0.39
2024-04-21T04:01:45.974Z,0.40
2024-04-21T04:02:45.935Z,0.42
2024-04-21T04:03:45.991Z,0.45
2024-04-21T04:04:45.997Z,0.47
2024-04-21T04:05:45.922Z,0.50
2024-04-21T04:06:45.925Z,0.50
2024-04-21T04:07:45.879Z,0.50
2024-04-21T04:08:45.860Z,0.51
2024-04-21T04:09:45.901Z,0.50
2024-04-21T04:10:45.839Z,0.50
2024-04-21T04:11:45.835Z,0.51
2024-04-21T04:12:47.868Z,0.50
2024-04-21T04:13:45.814Z,0.50
2024-04-21T04:14:45.809Z,0.50
2024-04-21T04:15:45.869Z,0.51
2024-04-21T04:16:45.790Z,0.51
2024-04-21T04:17:45.924Z,0.50
2024-04-21T04:18:45.891Z,0.50
2024-04-21T04:19:45.763Z,0.51
2024-04-21T04:20:45.760Z,0.51
2024-04-21T04:21:45.801Z,0.49
2024-04-21T04:22:45.763Z,0.46
2024-04-21T04:23:45.742Z,0.46
2024-04-21T04:24:45.816Z,0.45
2024-04-21T04:25:45.737Z,0.45
2024-04-21T04:26:45.698Z,0.48
2024-04-21T04:27:45.699Z,0.51
2024-04-21T04:28:45.695Z,0.50
2024-04-21T04:29:45.698Z,0.51
2024-04-21T04:30:45.690Z,0.51
2024-04-21T04:31:45.674Z,0.50
2024-04-21T04:32:45.719Z,0.50
2024-04-21T04:33:45.676Z,0.51
2024-04-21T04:34:45.659Z,0.51
2024-04-21T04:35:45.655Z,0.51
2024-04-21T04:36:45.670Z,0.50
2024-04-21T04:37:45.632Z,0.51
2024-04-21T04:38:52.919Z,0.50
2024-04-21T04:39:52.933Z,0.50
2024-04-21T04:40:52.893Z,0.50
2024-04-21T04:41:52.876Z,0.50
2024-04-21T04:42:52.870Z,0.50
2024-04-21T04:43:52.867Z,0.50
2024-04-21T04:44:52.861Z,0.52
2024-04-21T04:45:52.868Z,0.51
2024-04-21T04:46:52.858Z,0.51
2024-04-21T04:47:52.859Z,0.52
2024-04-21T04:48:52.904Z,0.51
2024-04-21T04:49:52.813Z,0.51
2024-04-21T04:50:52.789Z,0.51
2024-04-21T04:51:52.790Z,0.50
2024-04-21T04:52:52.744Z,0.50
2024-04-21T04:53:52.741Z,0.50
2024-04-21T04:54:52.742Z,0.51
2024-04-21T04:55:52.704Z,0.50
2024-04-21T04:56:52.707Z,0.50
2024-04-21T04:57:52.712Z,0.51
2024-04-21T04:58:52.691Z,0.51
2024-04-21T04:59:52.699Z,0.50
2024-04-21T05:00:52.723Z,0.51
2024-04-21T05:01:52.984Z,0.50
2024-04-21T05:02:52.664Z,0.51
2024-04-21T05:03:52.681Z,0.51
2024-04-21T05:04:52.757Z,0.52
2024-04-21T05:05:52.639Z,0.50
2024-04-21T05:06:52.641Z,0.50
2024-04-21T05:07:52.617Z,0.51
2024-04-21T05:08:52.601Z,0.50
2024-04-21T05:09:52.603Z,0.51
2024-04-21T05:10:52.583Z,0.51
2024-04-21T05:11:52.581Z,0.51
2024-04-21T05:12:52.584Z,0.51
2024-04-21T05:13:52.555Z,0.51
2024-04-21T05:14:52.553Z,0.50
2024-04-21T05:15:52.560Z,0.52
2024-04-21T05:16:52.519Z,0.52
2024-04-21T05:17:52.590Z,0.53
2024-04-21T05:18:52.532Z,0.50
2024-04-21T05:19:52.498Z,0.53
2024-04-21T05:20:55.842Z,0.52
2024-04-21T05:21:52.541Z,0.52
2024-04-21T05:22:52.466Z,0.52
2024-04-21T05:23:52.463Z,0.52
2024-04-21T05:24:52.486Z,0.52
2024-04-21T05:25:52.468Z,0.52
2024-04-21T05:26:52.445Z,0.51
2024-04-21T05:27:52.499Z,0.51
2024-04-21T05:28:52.560Z,0.51
2024-04-21T05:29:52.455Z,0.50
2024-04-21T05:30:52.442Z,0.50
2024-04-21T05:31:52.428Z,0.51
2024-04-21T05:32:52.496Z,0.50
2024-04-21T05:33:52.469Z,0.54
2024-04-21T05:34:52.396Z,0.54
2024-04-21T05:35:52.387Z,0.53
2024-04-21T05:36:52.393Z,0.57
2024-04-21T05:37:52.359Z,0.54
2024-04-21T05:38:52.374Z,0.54
2024-04-21T05:39:52.384Z,0.56
2024-04-21T05:40:52.351Z,0.55
2024-04-21T05:41:52.332Z,0.56
2024-04-21T05:42:52.343Z,0.54
2024-04-21T05:43:52.328Z,0.55
2024-04-21T05:44:52.779Z,0.55
2024-04-21T05:45:52.296Z,0.55
2024-04-21T05:46:52.283Z,0.53
2024-04-21T05:47:52.373Z,0.54
2024-04-21T05:48:52.282Z,0.52
2024-04-21T05:49:52.264Z,0.52
2024-04-21T05:50:52.262Z,0.52
2024-04-21T05:51:52.295Z,0.54
2024-04-21T05:52:52.239Z,0.52
2024-04-21T05:53:54.071Z,0.53
2024-04-21T05:54:52.248Z,0.52
2024-04-21T05:55:52.216Z,0.53
2024-04-21T05:56:52.215Z,0.54
2024-04-21T05:57:52.216Z,0.52
2024-04-21T05:58:52.195Z,0.52
2024-04-21T05:59:52.211Z,0.54
2024-04-21T06:00:52.353Z,0.54
2024-04-21T06:01:52.178Z,0.54
2024-04-21T06:02:52.237Z,0.54
2024-04-21T06:03:52.214Z,0.55
2024-04-21T06:04:52.257Z,0.54
2024-04-21T06:05:52.161Z,0.53
2024-04-21T06:06:52.206Z,0.52
2024-04-21T06:07:52.121Z,0.52
2024-04-21T06:08:52.125Z,0.52
2024-04-21T06:09:52.151Z,0.52
2024-04-21T06:10:52.099Z,0.51
2024-04-21T06:11:52.116Z,0.51
2024-04-21T06:12:52.126Z,0.50
2024-04-21T06:13:52.088Z,0.51
2024-04-21T06:14:52.075Z,0.51
2024-04-21T06:15:52.141Z,0.52
2024-04-21T06:16:52.086Z,0.50
2024-04-21T06:17:52.116Z,0.50
2024-04-21T06:18:52.231Z,0.51
2024-04-21T06:19:52.035Z,0.51
2024-04-21T06:20:52.040Z,0.51
2024-04-21T06:21:52.044Z,0.51
2024-04-21T06:22:52.017Z,0.52
2024-04-21T06:23:52.008Z,0.52
2024-04-21T06:24:52.016Z,0.51
2024-04-21T06:25:52.002Z,0.50
2024-04-21T06:26:51.980Z,0.51
2024-04-21T06:27:52.041Z,0.51
2024-04-21T06:28:51.968Z,0.51
2024-04-21T06:29:51.962Z,0.51
2024-04-21T06:30:52.007Z,0.50
2024-04-21T06:31:51.975Z,0.51
2024-04-21T06:32:52.001Z,0.51
2024-04-21T06:33:51.949Z,0.52
2024-04-21T06:34:51.916Z,0.51
2024-04-21T06:35:51.924Z,0.51
2024-04-21T06:36:51.934Z,0.50
2024-04-21T06:37:51.886Z,0.50
2024-04-21T06:38:51.884Z,0.51
2024-04-21T06:39:51.916Z,0.50
2024-04-21T06:40:51.863Z,0.50
2024-04-21T06:41:51.845Z,0.50
2024-04-21T06:42:51.888Z,0.50
2024-04-21T06:43:51.820Z,0.50
2024-04-21T06:44:51.805Z,0.50
2024-04-21T06:45:51.820Z,0.50
2024-04-21T06:46:51.796Z,0.50
2024-04-21T06:47:51.901Z,0.50
2024-04-21T06:48:51.997Z,0.51
2024-04-21T06:49:51.768Z,0.50
2024-04-21T06:50:51.766Z,0.51
2024-04-21T06:51:51.832Z,0.51
2024-04-21T06:52:51.744Z,0.51
2024-04-21T06:53:51.714Z,0.50
2024-04-21T06:54:51.772Z,0.50
2024-04-21T06:55:51.716Z,0.50
2024-04-21T06:56:51.689Z,0.48
2024-04-21T06:57:51.705Z,0.48
2024-04-21T06:58:51.690Z,0.49
2024-04-21T06:59:51.669Z,0.50
2024-04-21T07:00:51.844Z,0.51
2024-04-21T07:01:51.716Z,0.51
2024-04-21T07:02:51.694Z,0.50
2024-04-21T07:03:51.700Z,0.51
2024-04-21T07:04:51.643Z,0.51
2024-04-21T07:05:51.596Z,0.51
2024-04-21T07:06:51.651Z,0.51
2024-04-21T07:07:51.580Z,0.51
2024-04-21T07:08:51.563Z,0.51
2024-04-21T07:09:51.586Z,0.51
2024-04-21T07:10:51.633Z,0.51
2024-04-21T07:11:51.640Z,0.51
2024-04-21T07:12:51.666Z,0.51
2024-04-21T07:14:01.931Z,0.51
2024-04-21T07:14:52.708Z,0.51
2024-04-21T07:15:51.696Z,0.51
2024-04-21T07:16:51.672Z,0.51
2024-04-21T07:17:51.709Z,0.50
2024-04-21T07:18:54.937Z,0.49
2024-04-21T07:19:51.629Z,0.50
2024-04-21T07:20:51.633Z,0.51
2024-04-21T07:21:51.647Z,0.51
2024-04-21T07:22:51.597Z,0.51
2024-04-21T07:23:51.596Z,0.51
2024-04-21T07:24:51.636Z,0.50
2024-04-21T07:25:51.638Z,0.50
2024-04-21T07:26:51.607Z,0.52
2024-04-21T07:27:51.596Z,0.52
2024-04-21T07:28:51.564Z,0.51
2024-04-21T07:29:51.565Z,0.50
2024-04-21T07:30:51.559Z,0.53
2024-04-21T07:31:51.552Z,0.50
2024-04-21T07:32:51.550Z,0.51
2024-04-21T07:33:51.556Z,0.51
2024-04-21T07:34:51.516Z,0.51
2024-04-21T07:35:51.532Z,0.52
2024-04-21T07:36:51.516Z,0.53
2024-04-21T07:37:51.504Z,0.54
2024-04-21T07:38:51.504Z,0.53
2024-04-21T07:39:51.489Z,0.53
2024-04-21T07:40:51.473Z,0.53
2024-04-21T07:41:51.469Z,0.53
2024-04-21T07:42:51.478Z,0.53
2024-04-21T07:43:51.457Z,0.53
2024-04-21T07:44:51.463Z,0.52
2024-04-21T07:45:51.494Z,0.51
2024-04-21T07:46:51.443Z,0.52
2024-04-21T07:47:51.553Z,0.52
2024-04-21T07:48:51.477Z,0.51
2024-04-21T07:49:51.439Z,0.53
2024-04-21T07:50:51.434Z,0.52
2024-04-21T07:51:51.438Z,0.51
2024-04-21T07:52:51.412Z,0.51
2024-04-21T07:53:51.412Z,0.52
2024-04-21T07:54:51.459Z,0.53
2024-04-21T07:55:51.416Z,0.52
2024-04-21T07:56:51.476Z,0.51
2024-04-21T07:57:51.503Z,0.50
2024-04-21T07:58:51.529Z,0.50
2024-04-21T07:59:51.560Z,0.50
2024-04-21T08:00:51.612Z,0.50
2024-04-21T08:01:51.605Z,0.50
2024-04-21T08:02:51.515Z,0.49
2024-04-21T08:03:51.548Z,0.48
2024-04-21T08:04:51.491Z,0.50
2024-04-21T08:05:51.489Z,0.51
2024-04-21T08:06:51.485Z,0.51
2024-04-21T08:07:51.490Z,0.51
2024-04-21T08:08:57.432Z,0.51
2024-04-21T08:09:52.564Z,0.51
2024-04-21T08:11:01.755Z,0.52
2024-04-21T08:11:52.491Z,0.51
2024-04-21T08:12:51.528Z,0.51
2024-04-21T08:13:51.454Z,0.52
2024-04-21T08:14:51.453Z,0.52
2024-04-21T08:15:51.476Z,0.53
2024-04-21T08:16:51.429Z,0.52
2024-04-21T08:17:51.654Z,0.53
2024-04-21T08:18:51.564Z,0.54
2024-04-21T08:19:51.416Z,0.55
2024-04-21T08:20:51.765Z,0.55
2024-04-21T08:21:51.442Z,0.56
2024-04-21T08:22:51.395Z,0.57
2024-04-21T08:23:51.412Z,0.57
2024-04-21T08:24:51.486Z,0.57
2024-04-21T08:25:51.381Z,0.58
2024-04-21T08:26:51.415Z,0.59
2024-04-21T08:27:51.526Z,0.60
2024-04-21T08:28:51.508Z,0.62
2024-04-21T08:29:51.566Z,0.63
2024-04-21T08:30:51.663Z,0.64
2024-04-21T08:31:51.704Z,0.63
2024-04-21T08:32:51.827Z,0.65
2024-04-21T08:33:51.803Z,0.64
2024-04-21T08:34:51.834Z,0.66
2024-04-21T08:35:51.875Z,0.67
2024-04-21T08:36:51.968Z,0.65
2024-04-21T08:37:51.985Z,0.66
2024-04-21T08:38:52.068Z,0.66
2024-04-21T08:39:52.171Z,0.66
2024-04-21T08:40:52.204Z,0.66
2024-04-21T08:41:52.255Z,0.69
2024-04-21T08:42:52.348Z,0.67
2024-04-21T08:43:52.399Z,0.68
2024-04-21T08:44:52.423Z,0.68
2024-04-21T08:45:52.495Z,0.68
2024-04-21T08:46:54.288Z,0.68
2024-04-21T08:47:52.484Z,0.69
2024-04-21T08:48:52.465Z,0.68
2024-04-21T08:49:52.409Z,0.68
2024-04-21T08:50:52.459Z,0.68
2024-04-21T08:51:52.603Z,0.67
2024-04-21T08:52:52.587Z,0.68
2024-04-21T08:53:52.638Z,0.67
2024-04-21T08:54:52.725Z,0.69
2024-04-21T08:55:52.738Z,0.69
2024-04-21T08:56:52.763Z,0.71
2024-04-21T08:57:52.853Z,0.71
2024-04-21T08:58:52.871Z,0.69
2024-04-21T08:59:52.907Z,0.69
2024-04-21T09:00:53.029Z,0.69
2024-04-21T09:01:53.071Z,0.68
2024-04-21T09:02:53.051Z,0.70
2024-04-21T09:03:53.227Z,0.70
2024-04-21T09:04:53.243Z,0.70
2024-04-21T09:05:53.245Z,0.71
2024-04-21T09:06:53.325Z,0.71
2024-04-21T09:07:53.366Z,0.72
2024-04-21T09:08:53.398Z,0.72
2024-04-21T09:09:53.469Z,0.74
2024-04-21T09:10:53.497Z,0.73
2024-04-21T09:11:53.518Z,0.74
2024-04-21T09:12:53.573Z,0.73
2024-04-21T09:13:53.590Z,0.73
2024-04-21T09:14:53.642Z,0.73
2024-04-21T09:15:53.704Z,0.72
2024-04-21T09:16:53.746Z,0.71
2024-04-21T09:17:53.950Z,0.72
2024-04-21T09:18:53.999Z,0.73
2024-04-21T09:19:53.884Z,0.74
2024-04-21T09:20:53.950Z,0.73
2024-04-21T09:21:54.014Z,0.75
2024-04-21T09:22:54.065Z,0.76
2024-04-21T09:23:54.102Z,0.74
2024-04-21T09:24:54.167Z,0.72
2024-04-21T09:25:54.157Z,0.73
2024-04-21T09:26:54.213Z,0.72
2024-04-21T09:27:54.333Z,0.72
2024-04-21T09:28:54.301Z,0.72
2024-04-21T09:29:54.346Z,0.74
2024-04-21T09:30:54.436Z,0.76
2024-04-21T09:31:54.507Z,0.77
2024-04-21T09:32:54.694Z,0.76
2024-04-21T09:33:54.634Z,0.78
2024-04-21T09:34:54.688Z,0.82
2024-04-21T09:35:54.736Z,0.87
2024-04-21T09:36:54.794Z,0.93
2024-04-21T09:37:54.828Z,1.02
2024-04-21T09:38:54.927Z,1.03
2024-04-21T09:39:54.886Z,1.05
2024-04-21T09:40:54.878Z,1.10
2024-04-21T09:41:54.896Z,1.21
2024-04-21T09:42:54.961Z,1.48
2024-04-21T09:43:54.920Z,1.61
2024-04-21T09:44:54.962Z,1.79
2024-04-21T09:45:55.060Z,1.90
2024-04-21T09:46:54.994Z,2.14
2024-04-21T09:47:55.087Z,2.15
2024-04-21T09:48:55.005Z,2.19
2024-04-21T09:49:54.991Z,2.31
2024-04-21T09:50:54.986Z,2.57
2024-04-21T09:51:54.973Z,3.15
2024-04-21T09:52:54.950Z,3.42
2024-04-21T09:53:54.945Z,3.72
2024-04-21T09:54:54.987Z,3.85
2024-04-21T09:55:54.932Z,4.13
2024-04-21T09:56:54.910Z,4.14
2024-04-21T09:57:54.946Z,4.20
2024-04-21T09:58:54.886Z,4.38
2024-04-21T09:59:54.867Z,4.66
2024-04-21T10:00:54.936Z,5.25
2024-04-21T10:01:54.958Z,5.61
2024-04-21T10:02:54.933Z,5.76
2024-04-21T10:03:54.917Z,6.05
2024-04-21T10:04:54.824Z,6.23
2024-04-21T10:05:54.820Z,6.39
2024-04-21T10:06:54.849Z,6.71
2024-04-21T10:07:54.790Z,6.81
2024-04-21T10:08:54.798Z,7.01
2024-04-21T10:09:54.791Z,7.37
2024-04-21T10:10:54.955Z,7.62
2024-04-21T10:11:54.858Z,7.73
2024-04-21T10:12:54.935Z,8.02
2024-04-21T10:13:54.988Z,8.14
2024-04-21T10:14:55.028Z,8.28
2024-04-21T10:15:55.112Z,8.69
2024-04-21T10:16:55.134Z,8.86
2024-04-21T10:17:55.410Z,9.08
2024-04-21T10:18:55.256Z,8.87
2024-04-21T10:19:55.302Z,9.06
2024-04-21T10:20:55.352Z,9.54
2024-04-21T10:21:55.404Z,9.75
2024-04-21T10:22:55.437Z,10.07
2024-04-21T10:23:55.500Z,10.11
2024-04-21T10:24:55.586Z,10.56
2024-04-21T10:25:55.573Z,10.37
2024-04-21T10:26:55.605Z,10.64
2024-04-21T10:27:55.676Z,11.13
2024-04-21T10:28:55.686Z,11.19
2024-04-21T10:29:55.732Z,11.48
2024-04-21T10:30:55.792Z,10.95
2024-04-21T10:31:55.819Z,10.99
2024-04-21T10:32:55.876Z,11.55
2024-04-21T10:33:55.911Z,11.64
2024-04-21T10:34:55.930Z,11.88
2024-04-21T10:35:55.982Z,12.02
2024-04-21T10:36:56.057Z,12.66
2024-04-21T10:37:56.084Z,12.06
2024-04-21T10:38:56.080Z,12.33
2024-04-21T10:39:56.122Z,12.46
2024-04-21T10:40:56.151Z,13.24
2024-04-21T10:41:56.174Z,12.77
2024-04-21T10:42:56.237Z,12.67
2024-04-21T10:43:56.278Z,12.90
2024-04-21T10:44:56.262Z,13.86
2024-04-21T10:45:56.346Z,13.12
2024-04-21T10:46:56.318Z,13.89
2024-04-21T10:47:56.425Z,13.68
2024-04-21T10:48:56.418Z,13.90
2024-04-21T10:49:56.393Z,13.78
2024-04-21T10:50:56.417Z,14.60
2024-04-21T10:51:56.492Z,14.37
2024-04-21T10:52:56.465Z,14.40
2024-04-21T10:53:56.493Z,14.57
2024-04-21T10:54:56.548Z,14.94
2024-04-21T10:55:56.534Z,15.40
2024-04-21T10:56:56.563Z,14.61
2024-04-21T10:57:56.639Z,14.74
2024-04-21T10:58:56.606Z,14.40
2024-04-21T10:59:56.637Z,14.99
2024-04-21T11:00:56.702Z,14.97
2024-04-21T11:01:56.729Z,14.83
2024-04-21T11:02:56.709Z,15.56
2024-04-21T11:03:56.771Z,15.10
2024-04-21T11:04:56.739Z,15.36
2024-04-21T11:05:56.760Z,15.59
2024-04-21T11:06:56.804Z,15.17
2024-04-21T11:07:58.338Z,15.18
2024-04-21T11:08:56.793Z,15.61
2024-04-21T11:09:56.868Z,15.74
2024-04-21T11:10:56.844Z,15.73
2024-04-21T11:11:56.844Z,15.43
2024-04-21T11:12:56.844Z,15.70
2024-04-21T11:13:56.866Z,15.64
2024-04-21T11:14:56.874Z,15.62
2024-04-21T11:15:56.856Z,15.64
2024-04-21T11:16:56.817Z,15.67
2024-04-21T11:17:56.910Z,15.88
2024-04-21T11:18:56.882Z,16.05
2024-04-21T11:19:56.767Z,16.48
2024-04-21T11:20:56.745Z,16.62
2024-04-21T11:21:56.727Z,16.19
2024-04-21T11:22:56.728Z,16.55
2024-04-21T11:23:56.687Z,16.56
2024-04-21T11:24:56.708Z,16.61
2024-04-21T11:25:56.675Z,16.76
2024-04-21T11:26:56.611Z,17.00
2024-04-21T11:27:56.672Z,17.14
2024-04-21T11:28:56.596Z,17.38
2024-04-21T11:29:56.564Z,17.21
2024-04-21T11:30:56.585Z,17.54
2024-04-21T11:31:56.546Z,17.55
2024-04-21T11:32:56.571Z,17.28
2024-04-21T11:33:56.558Z,16.84
2024-04-21T11:34:56.447Z,17.52
2024-04-21T11:35:56.434Z,17.54
2024-04-21T11:36:56.442Z,17.20
2024-04-21T11:37:56.374Z,17.43
2024-04-21T11:38:56.377Z,17.62
2024-04-21T11:39:56.404Z,17.51
2024-04-21T11:40:56.305Z,17.72
2024-04-21T11:41:56.279Z,17.58
2024-04-21T11:42:56.285Z,17.11
2024-04-21T11:43:56.230Z,17.37
2024-04-21T11:44:56.208Z,17.27
2024-04-21T11:45:56.225Z,16.90
2024-04-21T11:46:56.144Z,17.24
2024-04-21T11:47:56.180Z,16.87
2024-04-21T11:48:56.128Z,16.87
2024-04-21T11:49:56.063Z,16.85
2024-04-21T11:50:56.037Z,17.11
2024-04-21T11:51:56.061Z,17.12
2024-04-21T11:52:56.043Z,17.18
2024-04-21T11:53:56.020Z,17.14
2024-04-21T11:54:56.055Z,16.79
2024-04-21T11:55:56.060Z,16.69
2024-04-21T11:56:56.009Z,17.01
2024-04-21T11:57:56.020Z,16.66
2024-04-21T11:58:55.996Z,16.61
2024-04-21T11:59:55.992Z,16.44
2024-04-21T12:00:56.023Z,16.33
2024-04-21T12:01:56.088Z,16.19
2024-04-21T12:02:56.020Z,16.07
2024-04-21T12:03:56.049Z,15.80
2024-04-21T12:04:56.083Z,16.00
2024-04-21T12:05:55.996Z,16.31
2024-04-21T12:06:55.998Z,15.74
2024-04-21T12:07:55.984Z,15.79
2024-04-21T12:08:55.981Z,15.62
2024-04-21T12:09:56.019Z,15.53
2024-04-21T12:10:56.041Z,15.46
2024-04-21T12:11:56.011Z,15.40
2024-04-21T12:12:56.050Z,15.15
2024-04-21T12:13:56.009Z,15.09
2024-04-21T12:14:56.014Z,15.19
2024-04-21T12:15:56.070Z,14.87
2024-04-21T12:16:56.091Z,14.87
2024-04-21T12:17:56.050Z,14.93
2024-04-21T12:18:56.076Z,14.69
2024-04-21T12:19:56.044Z,14.90
2024-04-21T12:20:56.050Z,14.67
2024-04-21T12:21:56.188Z,14.36
2024-04-21T12:22:56.079Z,14.58
2024-04-21T12:23:56.088Z,14.08
2024-04-21T12:24:56.154Z,14.22
2024-04-21T12:25:56.101Z,14.39
2024-04-21T12:26:56.108Z,14.08
2024-04-21T12:27:56.131Z,14.02
2024-04-21T12:28:56.130Z,14.12
2024-04-21T12:29:56.134Z,13.96
2024-04-21T12:30:56.222Z,14.16
2024-04-21T12:31:56.157Z,14.10
2024-04-21T12:32:56.250Z,14.38
2024-04-21T12:33:56.233Z,13.73
2024-04-21T12:34:56.163Z,13.75
2024-04-21T12:35:56.174Z,13.82
2024-04-21T12:36:56.161Z,13.77
2024-04-21T12:37:56.115Z,14.04
2024-04-21T12:38:56.084Z,13.75
2024-04-21T12:39:56.100Z,13.82
2024-04-21T12:40:56.056Z,14.02
2024-04-21T12:41:56.017Z,14.13
2024-04-21T12:42:56.034Z,15.30
2024-04-21T12:43:55.977Z,14.61
2024-04-21T12:44:55.956Z,14.34
2024-04-21T12:45:56.079Z,14.18
2024-04-21T12:46:56.055Z,14.10
2024-04-21T12:47:55.935Z,14.41
2024-04-21T12:48:55.867Z,13.94
2024-04-21T12:49:55.839Z,14.26
2024-04-21T12:50:55.827Z,13.86
2024-04-21T12:51:55.822Z,13.49
2024-04-21T12:52:55.768Z,13.59
2024-04-21T12:53:55.764Z,13.57
2024-04-21T12:54:55.819Z,13.08
2024-04-21T12:55:55.817Z,13.33
2024-04-21T12:56:55.811Z,13.11
2024-04-21T12:57:55.858Z,12.76
2024-04-21T12:58:55.854Z,13.17
2024-04-21T12:59:55.862Z,12.83
2024-04-21T13:00:55.959Z,13.00
2024-04-21T13:01:55.956Z,12.58
2024-04-21T13:02:55.905Z,12.07
2024-04-21T13:03:55.987Z,12.40
2024-04-21T13:04:56.071Z,11.48
2024-04-21T13:05:55.979Z,11.66
2024-04-21T13:06:56.026Z,11.58
2024-04-21T13:07:56.025Z,11.59
2024-04-21T13:08:56.027Z,11.22
2024-04-21T13:09:56.102Z,10.90
2024-04-21T13:10:56.114Z,10.64
2024-04-21T13:11:56.076Z,10.33
2024-04-21T13:12:56.117Z,10.44